sensor_id;sensor_type;location;lat;lon;timestamp;temperature;humidity
23471;DHT22;11908;50.806;4.424;2023-05-07T00:00:00;16.70;99.90
23471;DHT22;11908;50.806;4.424;2023-05-07T00:02:26;16.60;99.90
23471;DHT22;11908;50.806;4.424;2023-05-07T00:04:52;16.70;99.90
23471;DHT22;11908;50.806;4.424;2023-05-07T00:07:18;16.80;99.90
23471;DHT22;11908;50.806;4.424;2023-05-07T00:09:44;16.90;99.90
23471;DHT22;11908;50.806;4.424;2023-05-07T00:12:10;17.00;99.90
23471;DHT22;11908;50.806;4.424;2023-05-07T00:14:36;17.00;99.90
23471;DHT22;11908;50.806;4.424;2023-05-07T00:17:02;16.90;99.90
23471;DHT22;11908;50.806;4.424;2023-05-07T00:19:27;16.90;99.90
23471;DHT22;11908;50.806;4.424;2023-05-07T00:21:53;16.80;99.90
23471;DHT22;11908;50.806;4.424;2023-05-07T00:24:19;16.80;99.90
23471;DHT22;11908;50.806;4.424;2023-05-07T00:26:45;16.80;99.90
23471;DHT22;11908;50.806;4.424;2023-05-07T00:29:11;16.90;99.90
23471;DHT22;11908;50.806;4.424;2023-05-07T00:31:37;17.00;99.90
23471;DHT22;11908;50.806;4.424;2023-05-07T00:34:02;17.00;99.90
23471;DHT22;11908;50.806;4.424;2023-05-07T00:36:28;17.00;99.90
23471;DHT22;11908;50.806;4.424;2023-05-07T00:38:54;16.90;99.90
23471;DHT22;11908;50.806;4.424;2023-05-07T00:41:20;17.10;99.90
23471;DHT22;11908;50.806;4.424;2023-05-07T00:43:46;17.00;99.90
23471;DHT22;11908;50.806;4.424;2023-05-07T00:46:13;17.00;99.90
23471;DHT22;11908;50.806;4.424;2023-05-07T00:48:39;17.00;99.90
23471;DHT22;11908;50.806;4.424;2023-05-07T00:51:05;17.00;99.90
23471;DHT22;11908;50.806;4.424;2023-05-07T00:53:31;17.10;99.90
23471;DHT22;11908;50.806;4.424;2023-05-07T00:55:57;17.10;99.90
23471;DHT22;11908;50.806;4.424;2023-05-07T00:58:23;17.10;99.90
23471;DHT22;11908;50.806;4.424;2023-05-07T01:00:49;17.00;99.90
23471;DHT22;11908;50.806;4.424;2023-05-07T01:03:15;17.00;99.90
23471;DHT22;11908;50.806;4.424;2023-05-07T01:05:42;16.90;99.90
23471;DHT22;11908;50.806;4.424;2023-05-07T01:08:08;17.00;99.90
23471;DHT22;11908;50.806;4.424;2023-05-07T01:10:36;17.00;99.90
23471;DHT22;11908;50.806;4.424;2023-05-07T01:13:02;17.10;99.90
23471;DHT22;11908;50.806;4.424;2023-05-07T01:15:28;17.10;99.90
23471;DHT22;11908;50.806;4.424;2023-05-07T01:17:54;17.10;99.90
23471;DHT22;11908;50.806;4.424;2023-05-07T01:20:21;17.00;99.90
23471;DHT22;11908;50.806;4.424;2023-05-07T01:22:48;17.00;99.90
23471;DHT22;11908;50.806;4.424;2023-05-07T01:25:14;16.90;99.90
23471;DHT22;11908;50.806;4.424;2023-05-07T01:27:41;17.00;99.90
23471;DHT22;11908;50.806;4.424;2023-05-07T01:30:07;17.00;99.90
23471;DHT22;11908;50.806;4.424;2023-05-07T01:32:42;17.00;99.90
23471;DHT22;11908;50.806;4.424;2023-05-07T01:35:29;17.00;99.90
23471;DHT22;11908;50.806;4.424;2023-05-07T01:37:56;17.00;99.90
23471;DHT22;11908;50.806;4.424;2023-05-07T01:40:23;16.90;99.90
23471;DHT22;11908;50.806;4.424;2023-05-07T01:42:50;16.90;99.90
23471;DHT22;11908;50.806;4.424;2023-05-07T01:45:16;16.80;99.90
23471;DHT22;11908;50.806;4.424;2023-05-07T01:47:42;16.70;99.90
23471;DHT22;11908;50.806;4.424;2023-05-07T01:50:09;16.60;99.90
23471;DHT22;11908;50.806;4.424;2023-05-07T01:52:38;16.60;99.90
23471;DHT22;11908;50.806;4.424;2023-05-07T01:55:05;16.70;99.90
23471;DHT22;11908;50.806;4.424;2023-05-07T01:57:31;16.70;99.90
23471;DHT22;11908;50.806;4.424;2023-05-07T01:59:56;16.70;99.90
23471;DHT22;11908;50.806;4.424;2023-05-07T02:02:22;16.60;99.90
23471;DHT22;11908;50.806;4.424;2023-05-07T02:04:48;16.60;99.90
23471;DHT22;11908;50.806;4.424;2023-05-07T02:07:13;16.70;99.90
23471;DHT22;11908;50.806;4.424;2023-05-07T02:09:39;16.60;99.90
23471;DHT22;11908;50.806;4.424;2023-05-07T02:12:04;16.70;99.90
23471;DHT22;11908;50.806;4.424;2023-05-07T02:14:30;16.60;99.90
23471;DHT22;11908;50.806;4.424;2023-05-07T02:16:56;16.60;99.90
23471;DHT22;11908;50.806;4.424;2023-05-07T02:19:21;16.60;99.90
23471;DHT22;11908;50.806;4.424;2023-05-07T02:21:47;16.40;99.90
23471;DHT22;11908;50.806;4.424;2023-05-07T02:24:13;16.40;99.90
23471;DHT22;11908;50.806;4.424;2023-05-07T02:26:40;16.40;99.90
23471;DHT22;11908;50.806;4.424;2023-05-07T02:29:06;16.40;99.90
23471;DHT22;11908;50.806;4.424;2023-05-07T02:31:32;16.50;99.90
23471;DHT22;11908;50.806;4.424;2023-05-07T02:33:59;16.40;99.90
23471;DHT22;11908;50.806;4.424;2023-05-07T02:36:25;16.40;99.90
23471;DHT22;11908;50.806;4.424;2023-05-07T02:38:52;16.30;99.90
23471;DHT22;11908;50.806;4.424;2023-05-07T02:41:17;16.30;99.90
23471;DHT22;11908;50.806;4.424;2023-05-07T02:43:43;16.30;99.90
23471;DHT22;11908;50.806;4.424;2023-05-07T02:46:09;16.30;99.90
23471;DHT22;11908;50.806;4.424;2023-05-07T02:48:35;16.30;99.90
23471;DHT22;11908;50.806;4.424;2023-05-07T02:51:01;16.20;99.90
23471;DHT22;11908;50.806;4.424;2023-05-07T02:53:27;16.20;99.90
23471;DHT22;11908;50.806;4.424;2023-05-07T02:55:54;16.20;99.90
23471;DHT22;11908;50.806;4.424;2023-05-07T02:58:19;16.20;99.90
23471;DHT22;11908;50.806;4.424;2023-05-07T03:00:45;16.30;99.90
23471;DHT22;11908;50.806;4.424;2023-05-07T03:03:11;16.20;99.90
23471;DHT22;11908;50.806;4.424;2023-05-07T03:05:37;16.20;99.90
23471;DHT22;11908;50.806;4.424;2023-05-07T03:08:02;16.20;99.90
23471;DHT22;11908;50.806;4.424;2023-05-07T03:10:29;16.20;99.90
23471;DHT22;11908;50.806;4.424;2023-05-07T03:12:55;16.30;99.90
23471;DHT22;11908;50.806;4.424;2023-05-07T03:15:21;16.10;99.90
23471;DHT22;11908;50.806;4.424;2023-05-07T03:17:49;16.00;99.90
23471;DHT22;11908;50.806;4.424;2023-05-07T03:20:15;16.00;99.90
23471;DHT22;11908;50.806;4.424;2023-05-07T03:22:41;16.10;99.90
23471;DHT22;11908;50.806;4.424;2023-05-07T03:25:08;16.10;99.90
23471;DHT22;11908;50.806;4.424;2023-05-07T03:27:34;16.10;99.90
23471;DHT22;11908;50.806;4.424;2023-05-07T03:30:00;16.20;99.90
23471;DHT22;11908;50.806;4.424;2023-05-07T03:32:25;16.20;99.90
23471;DHT22;11908;50.806;4.424;2023-05-07T03:34:51;16.20;99.90
23471;DHT22;11908;50.806;4.424;2023-05-07T03:37:17;16.20;99.90
23471;DHT22;11908;50.806;4.424;2023-05-07T03:39:43;16.30;99.90
23471;DHT22;11908;50.806;4.424;2023-05-07T03:42:08;16.30;99.90
23471;DHT22;11908;50.806;4.424;2023-05-07T03:44:34;16.30;99.90
23471;DHT22;11908;50.806;4.424;2023-05-07T03:47:02;16.20;99.90
23471;DHT22;11908;50.806;4.424;2023-05-07T03:49:27;16.20;99.90
23471;DHT22;11908;50.806;4.424;2023-05-07T03:51:53;16.20;99.90
23471;DHT22;11908;50.806;4.424;2023-05-07T03:54:19;16.10;99.90
23471;DHT22;11908;50.806;4.424;2023-05-07T03:56:45;16.10;99.90
23471;DHT22;11908;50.806;4.424;2023-05-07T03:59:11;16.10;99.90
23471;DHT22;11908;50.806;4.424;2023-05-07T04:01:37;16.20;99.90
23471;DHT22;11908;50.806;4.424;2023-05-07T04:04:02;16.20;99.90
23471;DHT22;11908;50.806;4.424;2023-05-07T04:06:29;16.10;99.90
23471;DHT22;11908;50.806;4.424;2023-05-07T04:08:55;16.20;99.90
23471;DHT22;11908;50.806;4.424;2023-05-07T04:11:21;16.20;99.90
23471;DHT22;11908;50.806;4.424;2023-05-07T04:13:47;16.20;99.90
23471;DHT22;11908;50.806;4.424;2023-05-07T04:16:12;16.20;99.90
23471;DHT22;11908;50.806;4.424;2023-05-07T04:18:38;16.30;99.90
23471;DHT22;11908;50.806;4.424;2023-05-07T04:21:04;16.30;99.90
23471;DHT22;11908;50.806;4.424;2023-05-07T04:23:30;16.20;99.90
23471;DHT22;11908;50.806;4.424;2023-05-07T04:25:56;16.20;99.90
23471;DHT22;11908;50.806;4.424;2023-05-07T04:28:23;16.20;99.90
23471;DHT22;11908;50.806;4.424;2023-05-07T04:30:48;16.20;99.90
23471;DHT22;11908;50.806;4.424;2023-05-07T04:33:14;16.30;99.90
23471;DHT22;11908;50.806;4.424;2023-05-07T04:35:42;16.30;99.90
23471;DHT22;11908;50.806;4.424;2023-05-07T04:38:08;16.40;99.90
23471;DHT22;11908;50.806;4.424;2023-05-07T04:40:35;16.40;99.90
23471;DHT22;11908;50.806;4.424;2023-05-07T04:43:01;16.50;99.90
23471;DHT22;11908;50.806;4.424;2023-05-07T04:45:27;16.50;99.90
23471;DHT22;11908;50.806;4.424;2023-05-07T04:47:53;16.60;99.90
23471;DHT22;11908;50.806;4.424;2023-05-07T04:50:18;16.60;99.90
23471;DHT22;11908;50.806;4.424;2023-05-07T04:52:45;16.60;99.90
23471;DHT22;11908;50.806;4.424;2023-05-07T04:55:11;16.80;99.90
23471;DHT22;11908;50.806;4.424;2023-05-07T04:57:36;16.80;99.90
23471;DHT22;11908;50.806;4.424;2023-05-07T05:00:05;16.90;99.90
23471;DHT22;11908;50.806;4.424;2023-05-07T05:02:31;17.00;99.90
23471;DHT22;11908;50.806;4.424;2023-05-07T05:04:56;17.00;99.90
23471;DHT22;11908;50.806;4.424;2023-05-07T05:07:22;17.10;99.90
23471;DHT22;11908;50.806;4.424;2023-05-07T05:09:48;17.00;99.90
23471;DHT22;11908;50.806;4.424;2023-05-07T05:12:13;16.90;99.90
23471;DHT22;11908;50.806;4.424;2023-05-07T05:14:39;16.90;99.90
23471;DHT22;11908;50.806;4.424;2023-05-07T05:17:04;16.80;99.90
23471;DHT22;11908;50.806;4.424;2023-05-07T05:19:30;16.80;99.90
23471;DHT22;11908;50.806;4.424;2023-05-07T05:21:56;17.00;99.90
23471;DHT22;11908;50.806;4.424;2023-05-07T05:24:21;17.10;99.90
23471;DHT22;11908;50.806;4.424;2023-05-07T05:26:47;17.30;99.90
23471;DHT22;11908;50.806;4.424;2023-05-07T05:29:13;17.40;99.90
23471;DHT22;11908;50.806;4.424;2023-05-07T05:31:38;17.50;99.90
23471;DHT22;11908;50.806;4.424;2023-05-07T05:34:04;17.50;99.90
23471;DHT22;11908;50.806;4.424;2023-05-07T05:36:30;17.60;99.90
23471;DHT22;11908;50.806;4.424;2023-05-07T05:38:56;17.60;99.90
23471;DHT22;11908;50.806;4.424;2023-05-07T05:41:21;17.50;99.90
23471;DHT22;11908;50.806;4.424;2023-05-07T05:43:48;17.60;99.90
23471;DHT22;11908;50.806;4.424;2023-05-07T05:46:14;17.60;99.90
23471;DHT22;11908;50.806;4.424;2023-05-07T05:48:40;17.60;99.90
23471;DHT22;11908;50.806;4.424;2023-05-07T05:51:06;17.60;99.90
23471;DHT22;11908;50.806;4.424;2023-05-07T05:53:31;17.50;99.90
23471;DHT22;11908;50.806;4.424;2023-05-07T05:55:57;17.40;99.90
23471;DHT22;11908;50.806;4.424;2023-05-07T05:58:23;17.40;99.90
23471;DHT22;11908;50.806;4.424;2023-05-07T06:00:48;17.50;99.90
23471;DHT22;11908;50.806;4.424;2023-05-07T06:03:17;17.10;99.90
23471;DHT22;11908;50.806;4.424;2023-05-07T06:05:43;17.20;99.90
23471;DHT22;11908;50.806;4.424;2023-05-07T06:08:09;17.20;99.90
23471;DHT22;11908;50.806;4.424;2023-05-07T06:10:36;17.10;99.90
23471;DHT22;11908;50.806;4.424;2023-05-07T06:13:02;17.20;99.90
23471;DHT22;11908;50.806;4.424;2023-05-07T06:15:28;17.20;99.90
23471;DHT22;11908;50.806;4.424;2023-05-07T06:17:53;17.20;99.90
23471;DHT22;11908;50.806;4.424;2023-05-07T06:20:21;17.10;99.90
23471;DHT22;11908;50.806;4.424;2023-05-07T06:22:47;17.10;99.90
23471;DHT22;11908;50.806;4.424;2023-05-07T06:25:12;17.20;99.90
23471;DHT22;11908;50.806;4.424;2023-05-07T06:27:38;17.30;99.90
23471;DHT22;11908;50.806;4.424;2023-05-07T06:30:05;17.30;99.90
23471;DHT22;11908;50.806;4.424;2023-05-07T06:32:31;17.20;99.90
23471;DHT22;11908;50.806;4.424;2023-05-07T06:34:57;17.00;99.90
23471;DHT22;11908;50.806;4.424;2023-05-07T06:37:22;17.00;99.90
23471;DHT22;11908;50.806;4.424;2023-05-07T06:39:48;17.10;99.90
23471;DHT22;11908;50.806;4.424;2023-05-07T06:42:14;17.20;99.90
23471;DHT22;11908;50.806;4.424;2023-05-07T06:44:40;17.30;99.90
23471;DHT22;11908;50.806;4.424;2023-05-07T06:47:05;17.30;99.90
23471;DHT22;11908;50.806;4.424;2023-05-07T06:49:31;17.40;99.90
23471;DHT22;11908;50.806;4.424;2023-05-07T06:51:57;17.30;99.90
23471;DHT22;11908;50.806;4.424;2023-05-07T06:54:23;17.40;99.90
23471;DHT22;11908;50.806;4.424;2023-05-07T06:56:48;17.40;99.90
23471;DHT22;11908;50.806;4.424;2023-05-07T06:59:14;17.20;99.90
23471;DHT22;11908;50.806;4.424;2023-05-07T07:01:40;17.10;99.90
23471;DHT22;11908;50.806;4.424;2023-05-07T07:04:06;17.00;99.90
23471;DHT22;11908;50.806;4.424;2023-05-07T07:06:31;17.10;99.90
23471;DHT22;11908;50.806;4.424;2023-05-07T07:08:58;17.00;99.90
23471;DHT22;11908;50.806;4.424;2023-05-07T07:11:24;17.20;99.90
23471;DHT22;11908;50.806;4.424;2023-05-07T07:13:50;17.30;99.90
23471;DHT22;11908;50.806;4.424;2023-05-07T07:16:16;17.40;99.90
23471;DHT22;11908;50.806;4.424;2023-05-07T07:18:42;17.50;99.90
23471;DHT22;11908;50.806;4.424;2023-05-07T07:21:08;17.50;99.90
23471;DHT22;11908;50.806;4.424;2023-05-07T07:23:33;17.50;99.90
23471;DHT22;11908;50.806;4.424;2023-05-07T07:25:59;17.50;99.90
23471;DHT22;11908;50.806;4.424;2023-05-07T07:28:25;17.40;99.90
23471;DHT22;11908;50.806;4.424;2023-05-07T07:30:50;17.50;99.90
23471;DHT22;11908;50.806;4.424;2023-05-07T07:33:16;17.50;99.90
23471;DHT22;11908;50.806;4.424;2023-05-07T07:35:42;17.50;99.90
23471;DHT22;11908;50.806;4.424;2023-05-07T07:38:07;17.60;99.90
23471;DHT22;11908;50.806;4.424;2023-05-07T07:40:36;17.70;99.90
23471;DHT22;11908;50.806;4.424;2023-05-07T07:43:02;17.90;99.90
23471;DHT22;11908;50.806;4.424;2023-05-07T07:45:28;18.10;99.90
23471;DHT22;11908;50.806;4.424;2023-05-07T07:47:54;18.20;99.90
23471;DHT22;11908;50.806;4.424;2023-05-07T07:50:20;18.10;99.90
23471;DHT22;11908;50.806;4.424;2023-05-07T07:52:46;17.90;99.90
23471;DHT22;11908;50.806;4.424;2023-05-07T07:55:11;17.90;99.90
23471;DHT22;11908;50.806;4.424;2023-05-07T07:57:37;17.80;99.90
23471;DHT22;11908;50.806;4.424;2023-05-07T08:00:03;17.90;99.90
23471;DHT22;11908;50.806;4.424;2023-05-07T08:02:29;17.90;99.90
23471;DHT22;11908;50.806;4.424;2023-05-07T08:04:55;17.80;99.90
23471;DHT22;11908;50.806;4.424;2023-05-07T08:07:21;17.90;99.90
23471;DHT22;11908;50.806;4.424;2023-05-07T08:09:48;18.00;99.90
23471;DHT22;11908;50.806;4.424;2023-05-07T08:12:14;17.90;99.90
23471;DHT22;11908;50.806;4.424;2023-05-07T08:14:40;18.00;99.90
23471;DHT22;11908;50.806;4.424;2023-05-07T08:17:06;17.80;99.90
23471;DHT22;11908;50.806;4.424;2023-05-07T08:19:32;17.90;99.90
23471;DHT22;11908;50.806;4.424;2023-05-07T08:21:57;18.00;99.90
23471;DHT22;11908;50.806;4.424;2023-05-07T08:24:23;17.90;99.90
23471;DHT22;11908;50.806;4.424;2023-05-07T08:26:49;17.90;99.90
23471;DHT22;11908;50.806;4.424;2023-05-07T08:29:15;18.00;99.90
23471;DHT22;11908;50.806;4.424;2023-05-07T08:31:40;17.80;99.90
23471;DHT22;11908;50.806;4.424;2023-05-07T08:34:06;17.80;99.90
23471;DHT22;11908;50.806;4.424;2023-05-07T08:36:32;17.80;99.90
23471;DHT22;11908;50.806;4.424;2023-05-07T08:38:58;17.90;99.90
23471;DHT22;11908;50.806;4.424;2023-05-07T08:41:24;18.00;99.90
23471;DHT22;11908;50.806;4.424;2023-05-07T08:43:50;18.10;99.90
23471;DHT22;11908;50.806;4.424;2023-05-07T08:46:22;18.30;99.90
23471;DHT22;11908;50.806;4.424;2023-05-07T08:48:51;18.50;99.90
23471;DHT22;11908;50.806;4.424;2023-05-07T08:51:20;18.70;99.90
23471;DHT22;11908;50.806;4.424;2023-05-07T08:53:48;18.80;99.90
23471;DHT22;11908;50.806;4.424;2023-05-07T08:56:14;18.90;99.90
23471;DHT22;11908;50.806;4.424;2023-05-07T08:58:41;18.90;99.90
23471;DHT22;11908;50.806;4.424;2023-05-07T09:01:10;18.90;99.90
23471;DHT22;11908;50.806;4.424;2023-05-07T09:03:38;18.90;99.90
23471;DHT22;11908;50.806;4.424;2023-05-07T09:06:04;18.70;99.90
23471;DHT22;11908;50.806;4.424;2023-05-07T09:08:32;18.50;99.90
23471;DHT22;11908;50.806;4.424;2023-05-07T09:10:58;18.30;99.90
23471;DHT22;11908;50.806;4.424;2023-05-07T09:13:24;18.20;99.90
23471;DHT22;11908;50.806;4.424;2023-05-07T09:15:50;18.20;99.90
23471;DHT22;11908;50.806;4.424;2023-05-07T09:18:15;18.40;99.90
23471;DHT22;11908;50.806;4.424;2023-05-07T09:20:41;18.50;99.90
23471;DHT22;11908;50.806;4.424;2023-05-07T09:23:08;18.50;99.90
23471;DHT22;11908;50.806;4.424;2023-05-07T09:25:35;18.60;99.90
23471;DHT22;11908;50.806;4.424;2023-05-07T09:28:02;18.80;99.90
23471;DHT22;11908;50.806;4.424;2023-05-07T09:30:32;18.90;99.90
23471;DHT22;11908;50.806;4.424;2023-05-07T09:32:58;19.10;99.90
23471;DHT22;11908;50.806;4.424;2023-05-07T09:35:25;19.10;99.90
23471;DHT22;11908;50.806;4.424;2023-05-07T09:37:53;19.20;99.90
23471;DHT22;11908;50.806;4.424;2023-05-07T09:40:24;19.10;99.90
23471;DHT22;11908;50.806;4.424;2023-05-07T09:42:50;19.20;99.90
23471;DHT22;11908;50.806;4.424;2023-05-07T09:45:22;19.30;99.90
23471;DHT22;11908;50.806;4.424;2023-05-07T09:47:48;19.30;99.90
23471;DHT22;11908;50.806;4.424;2023-05-07T09:50:15;19.40;99.90
23471;DHT22;11908;50.806;4.424;2023-05-07T09:52:42;19.40;99.90
23471;DHT22;11908;50.806;4.424;2023-05-07T09:55:08;19.40;99.90
23471;DHT22;11908;50.806;4.424;2023-05-07T09:57:36;19.40;99.90
23471;DHT22;11908;50.806;4.424;2023-05-07T10:00:03;19.30;99.90
23471;DHT22;11908;50.806;4.424;2023-05-07T10:02:35;19.40;99.90
23471;DHT22;11908;50.806;4.424;2023-05-07T10:05:02;19.50;99.90
23471;DHT22;11908;50.806;4.424;2023-05-07T10:07:29;19.40;99.90
23471;DHT22;11908;50.806;4.424;2023-05-07T10:09:55;19.20;99.90
23471;DHT22;11908;50.806;4.424;2023-05-07T10:12:21;19.40;99.90
23471;DHT22;11908;50.806;4.424;2023-05-07T10:14:47;19.40;99.90
23471;DHT22;11908;50.806;4.424;2023-05-07T10:17:16;19.60;99.90
23471;DHT22;11908;50.806;4.424;2023-05-07T10:19:44;19.80;99.90
23471;DHT22;11908;50.806;4.424;2023-05-07T10:22:10;19.70;99.90
23471;DHT22;11908;50.806;4.424;2023-05-07T10:24:36;19.70;99.90
23471;DHT22;11908;50.806;4.424;2023-05-07T10:27:07;19.70;99.90
23471;DHT22;11908;50.806;4.424;2023-05-07T10:33:03;19.70;99.90
23471;DHT22;11908;50.806;4.424;2023-05-07T10:35:26;19.70;99.90
23471;DHT22;11908;50.806;4.424;2023-05-07T10:37:54;19.70;99.90
23471;DHT22;11908;50.806;4.424;2023-05-07T10:40:20;19.70;99.90
23471;DHT22;11908;50.806;4.424;2023-05-07T10:42:57;19.80;99.90
23471;DHT22;11908;50.806;4.424;2023-05-07T10:45:25;19.90;99.90
23471;DHT22;11908;50.806;4.424;2023-05-07T10:48:10;20.00;99.90
23471;DHT22;11908;50.806;4.424;2023-05-07T10:50:37;20.00;99.90
23471;DHT22;11908;50.806;4.424;2023-05-07T10:55:45;20.20;99.90
23471;DHT22;11908;50.806;4.424;2023-05-07T10:58:27;20.20;99.90
23471;DHT22;11908;50.806;4.424;2023-05-07T11:01:01;20.00;99.90
23471;DHT22;11908;50.806;4.424;2023-05-07T11:03:27;20.10;99.90
23471;DHT22;11908;50.806;4.424;2023-05-07T11:06:13;20.00;99.90
23471;DHT22;11908;50.806;4.424;2023-05-07T11:08:58;20.10;99.90
23471;DHT22;11908;50.806;4.424;2023-05-07T11:11:46;20.10;99.90
23471;DHT22;11908;50.806;4.424;2023-05-07T11:17:08;20.60;99.90
23471;DHT22;11908;50.806;4.424;2023-05-07T11:19:55;20.60;99.90
23471;DHT22;11908;50.806;4.424;2023-05-07T11:25:03;20.90;99.90
23471;DHT22;11908;50.806;4.424;2023-05-07T11:27:29;20.90;99.90
23471;DHT22;11908;50.806;4.424;2023-05-07T11:29:55;21.00;99.90
23471;DHT22;11908;50.806;4.424;2023-05-07T11:32:25;21.10;99.90
23471;DHT22;11908;50.806;4.424;2023-05-07T11:34:55;21.10;99.90
23471;DHT22;11908;50.806;4.424;2023-05-07T11:37:22;21.20;99.90
23471;DHT22;11908;50.806;4.424;2023-05-07T11:39:49;21.20;99.90
23471;DHT22;11908;50.806;4.424;2023-05-07T11:42:30;21.30;99.90
23471;DHT22;11908;50.806;4.424;2023-05-07T11:44:56;21.20;99.90
23471;DHT22;11908;50.806;4.424;2023-05-07T11:47:22;21.10;99.90
23471;DHT22;11908;50.806;4.424;2023-05-07T11:49:49;21.20;99.90
23471;DHT22;11908;50.806;4.424;2023-05-07T11:52:16;21.30;99.90
23471;DHT22;11908;50.806;4.424;2023-05-07T11:54:49;21.40;99.90
23471;DHT22;11908;50.806;4.424;2023-05-07T11:57:15;21.60;99.90
23471;DHT22;11908;50.806;4.424;2023-05-07T11:59:41;21.70;99.90
23471;DHT22;11908;50.806;4.424;2023-05-07T12:02:07;21.80;99.90
23471;DHT22;11908;50.806;4.424;2023-05-07T12:04:33;21.90;99.90
23471;DHT22;11908;50.806;4.424;2023-05-07T12:06:59;22.00;99.90
23471;DHT22;11908;50.806;4.424;2023-05-07T12:09:25;22.20;99.90
23471;DHT22;11908;50.806;4.424;2023-05-07T12:11:52;22.40;99.90
23471;DHT22;11908;50.806;4.424;2023-05-07T12:14:17;22.40;99.90
23471;DHT22;11908;50.806;4.424;2023-05-07T12:16:43;22.50;99.90
23471;DHT22;11908;50.806;4.424;2023-05-07T12:19:10;22.60;99.90
23471;DHT22;11908;50.806;4.424;2023-05-07T12:21:38;22.50;99.90
23471;DHT22;11908;50.806;4.424;2023-05-07T12:24:04;22.40;99.90
23471;DHT22;11908;50.806;4.424;2023-05-07T12:26:30;22.40;99.90
23471;DHT22;11908;50.806;4.424;2023-05-07T12:28:59;22.30;99.90
23471;DHT22;11908;50.806;4.424;2023-05-07T12:31:28;22.30;99.90
23471;DHT22;11908;50.806;4.424;2023-05-07T12:33:54;22.40;99.90
23471;DHT22;11908;50.806;4.424;2023-05-07T12:36:19;22.40;99.90
23471;DHT22;11908;50.806;4.424;2023-05-07T12:38:49;22.20;99.90
23471;DHT22;11908;50.806;4.424;2023-05-07T12:41:15;22.10;99.90
23471;DHT22;11908;50.806;4.424;2023-05-07T12:43:44;22.00;99.90
23471;DHT22;11908;50.806;4.424;2023-05-07T12:46:10;22.10;99.90
23471;DHT22;11908;50.806;4.424;2023-05-07T12:48:37;22.10;99.90
23471;DHT22;11908;50.806;4.424;2023-05-07T12:51:03;21.90;99.90
23471;DHT22;11908;50.806;4.424;2023-05-07T12:53:30;21.90;99.90
23471;DHT22;11908;50.806;4.424;2023-05-07T12:55:57;21.90;99.90
23471;DHT22;11908;50.806;4.424;2023-05-07T12:58:33;21.70;99.90
23471;DHT22;11908;50.806;4.424;2023-05-07T13:01:03;21.60;99.90
23471;DHT22;11908;50.806;4.424;2023-05-07T13:03:31;21.60;99.90
23471;DHT22;11908;50.806;4.424;2023-05-07T13:06:05;21.60;99.90
23471;DHT22;11908;50.806;4.424;2023-05-07T13:08:33;21.40;99.90
23471;DHT22;11908;50.806;4.424;2023-05-07T13:11:01;21.30;99.90
23471;DHT22;11908;50.806;4.424;2023-05-07T13:13:31;21.30;99.90
23471;DHT22;11908;50.806;4.424;2023-05-07T13:15:57;21.60;99.90
23471;DHT22;11908;50.806;4.424;2023-05-07T13:18:25;21.60;99.90
23471;DHT22;11908;50.806;4.424;2023-05-07T13:20:51;21.70;99.90
23471;DHT22;11908;50.806;4.424;2023-05-07T13:23:17;21.70;99.90
23471;DHT22;11908;50.806;4.424;2023-05-07T13:25:43;21.70;99.90
23471;DHT22;11908;50.806;4.424;2023-05-07T13:28:08;21.90;99.90
23471;DHT22;11908;50.806;4.424;2023-05-07T13:30:34;22.10;99.90
23471;DHT22;11908;50.806;4.424;2023-05-07T13:33:00;22.10;99.90
23471;DHT22;11908;50.806;4.424;2023-05-07T13:35:26;22.10;99.90
23471;DHT22;11908;50.806;4.424;2023-05-07T13:37:52;22.00;99.90
23471;DHT22;11908;50.806;4.424;2023-05-07T13:40:18;21.70;99.90
23471;DHT22;11908;50.806;4.424;2023-05-07T13:42:44;21.70;99.90
23471;DHT22;11908;50.806;4.424;2023-05-07T13:45:10;21.90;99.90
23471;DHT22;11908;50.806;4.424;2023-05-07T13:47:36;21.90;99.90
23471;DHT22;11908;50.806;4.424;2023-05-07T13:50:01;21.70;99.90
23471;DHT22;11908;50.806;4.424;2023-05-07T13:52:27;21.60;99.90
23471;DHT22;11908;50.806;4.424;2023-05-07T13:54:53;21.70;99.90
23471;DHT22;11908;50.806;4.424;2023-05-07T13:57:20;21.80;99.90
23471;DHT22;11908;50.806;4.424;2023-05-07T13:59:46;21.70;99.90
23471;DHT22;11908;50.806;4.424;2023-05-07T14:02:11;21.70;99.90
23471;DHT22;11908;50.806;4.424;2023-05-07T14:04:37;21.70;99.90
23471;DHT22;11908;50.806;4.424;2023-05-07T14:07:03;21.60;99.90
23471;DHT22;11908;50.806;4.424;2023-05-07T14:09:29;21.70;99.90
23471;DHT22;11908;50.806;4.424;2023-05-07T14:11:54;21.60;99.90
23471;DHT22;11908;50.806;4.424;2023-05-07T14:14:20;21.50;99.90
23471;DHT22;11908;50.806;4.424;2023-05-07T14:16:46;21.30;99.90
23471;DHT22;11908;50.806;4.424;2023-05-07T14:19:12;21.30;99.90
23471;DHT22;11908;50.806;4.424;2023-05-07T14:21:37;21.20;99.90
23471;DHT22;11908;50.806;4.424;2023-05-07T14:24:05;21.20;99.90
23471;DHT22;11908;50.806;4.424;2023-05-07T14:26:32;21.30;99.90
23471;DHT22;11908;50.806;4.424;2023-05-07T14:28:58;21.40;99.90
23471;DHT22;11908;50.806;4.424;2023-05-07T14:31:24;21.30;99.90
23471;DHT22;11908;50.806;4.424;2023-05-07T14:33:50;21.20;99.90
23471;DHT22;11908;50.806;4.424;2023-05-07T14:36:17;21.40;99.90
23471;DHT22;11908;50.806;4.424;2023-05-07T14:38:45;21.40;99.90
23471;DHT22;11908;50.806;4.424;2023-05-07T14:41:11;21.30;99.90
23471;DHT22;11908;50.806;4.424;2023-05-07T14:43:37;21.50;99.90
23471;DHT22;11908;50.806;4.424;2023-05-07T14:46:03;21.40;99.90
23471;DHT22;11908;50.806;4.424;2023-05-07T14:48:29;21.40;99.90
23471;DHT22;11908;50.806;4.424;2023-05-07T14:50:54;21.50;99.90
23471;DHT22;11908;50.806;4.424;2023-05-07T14:53:20;21.50;99.90
23471;DHT22;11908;50.806;4.424;2023-05-07T14:55:46;21.50;99.90
23471;DHT22;11908;50.806;4.424;2023-05-07T14:58:12;21.60;99.90
23471;DHT22;11908;50.806;4.424;2023-05-07T15:00:38;21.50;99.90
23471;DHT22;11908;50.806;4.424;2023-05-07T15:03:08;21.50;99.90
23471;DHT22;11908;50.806;4.424;2023-05-07T15:05:34;21.40;99.90
23471;DHT22;11908;50.806;4.424;2023-05-07T15:08:00;21.40;99.90
23471;DHT22;11908;50.806;4.424;2023-05-07T15:10:26;21.40;99.90
23471;DHT22;11908;50.806;4.424;2023-05-07T15:12:51;21.40;99.90
23471;DHT22;11908;50.806;4.424;2023-05-07T15:15:17;21.40;99.90
23471;DHT22;11908;50.806;4.424;2023-05-07T15:17:43;21.40;99.90
23471;DHT22;11908;50.806;4.424;2023-05-07T15:20:09;21.30;99.90
23471;DHT22;11908;50.806;4.424;2023-05-07T15:22:35;21.20;99.90
23471;DHT22;11908;50.806;4.424;2023-05-07T15:25:03;21.10;99.90
23471;DHT22;11908;50.806;4.424;2023-05-07T15:27:29;20.90;99.90
23471;DHT22;11908;50.806;4.424;2023-05-07T15:29:56;20.90;99.90
23471;DHT22;11908;50.806;4.424;2023-05-07T15:32:22;21.00;99.90
23471;DHT22;11908;50.806;4.424;2023-05-07T15:34:47;21.00;99.90
23471;DHT22;11908;50.806;4.424;2023-05-07T15:37:13;21.00;99.90